createdAt,value
2023-02-24T00:02:01.512Z,16.92
2023-02-24T00:04:31.085Z,17.08
2023-02-24T00:06:57.740Z,15.23
2023-02-24T00:09:26.378Z,15.80
2023-02-24T00:11:59.606Z,15.73
2023-02-24T00:14:35.267Z,14.85
2023-02-24T00:17:02.712Z,16.23
2023-02-24T00:19:32.787Z,16.08
2023-02-24T00:22:00.160Z,16.80
2023-02-24T00:24:27.309Z,15.35
2023-02-24T00:26:59.562Z,17.05
2023-02-24T00:29:28.265Z,16.63
2023-02-24T00:32:00.641Z,17.75
2023-02-24T00:34:28.907Z,16.08
2023-02-24T00:36:57.412Z,18.35
2023-02-24T00:39:35.786Z,18.13
2023-02-24T00:42:06.817Z,18.50
2023-02-24T00:44:39.523Z,16.13
2023-02-24T00:47:08.961Z,18.10
2023-02-24T00:49:36.348Z,17.80
2023-02-24T00:52:06.671Z,18.65
2023-02-24T00:54:36.543Z,16.85
2023-02-24T00:57:03.405Z,19.67
2023-02-24T00:59:30.227Z,18.80
2023-02-24T01:01:56.865Z,17.95
2023-02-24T01:04:23.491Z,16.73
2023-02-24T01:06:52.578Z,18.52
2023-02-24T01:09:21.048Z,20.83
2023-02-24T01:12:07.800Z,17.45
2023-02-24T01:14:35.648Z,21.50
2023-02-24T01:17:03.622Z,19.55
2023-02-24T01:19:32.041Z,17.67
2023-02-24T01:22:03.808Z,20.33
2023-02-24T01:24:38.124Z,19.58
2023-02-24T01:27:07.673Z,18.10
2023-02-24T01:29:39.569Z,20.52
2023-02-24T01:32:17.238Z,20.88
2023-02-24T01:34:44.720Z,21.52
2023-02-24T01:37:16.687Z,20.17
2023-02-24T01:39:47.214Z,21.63
2023-02-24T01:42:17.145Z,20.95
2023-02-24T01:44:43.791Z,19.45
2023-02-24T01:47:11.077Z,20.08
2023-02-24T01:49:43.734Z,20.33
2023-02-24T01:52:31.607Z,20.23
2023-02-24T01:55:29.177Z,19.90
2023-02-24T01:57:56.366Z,19.60
2023-02-24T02:00:38.322Z,20.33
2023-02-24T02:03:12.421Z,17.52
2023-02-24T02:05:40.448Z,18.13
2023-02-24T02:08:09.166Z,19.42
2023-02-24T02:10:40.784Z,21.10
2023-02-24T02:13:07.565Z,20.45
2023-02-24T02:15:44.262Z,19.50
2023-02-24T02:18:20.892Z,21.00
2023-02-24T02:20:59.809Z,22.08
2023-02-24T02:23:58.574Z,20.75
2023-02-24T02:26:54.048Z,22.08
2023-02-24T02:29:35.350Z,23.05
2023-02-24T02:32:17.360Z,22.77
2023-02-24T02:34:50.461Z,23.83
2023-02-24T02:37:37.470Z,23.42
2023-02-24T02:40:20.044Z,22.90
2023-02-24T02:42:47.600Z,20.83
2023-02-24T02:45:20.286Z,21.75
2023-02-24T02:48:15.394Z,22.25
2023-02-24T02:50:48.472Z,20.52
2023-02-24T02:53:19.978Z,22.05
2023-02-24T02:55:55.780Z,22.17
2023-02-24T02:58:26.620Z,21.63
2023-02-24T03:01:02.974Z,21.15
2023-02-24T03:03:34.182Z,21.67
2023-02-24T03:06:06.234Z,21.67
2023-02-24T03:08:37.315Z,21.10
2023-02-24T03:11:08.504Z,21.95
2023-02-24T03:13:38.044Z,21.73
2023-02-24T03:16:06.501Z,22.73
2023-02-24T03:18:39.581Z,22.27
2023-02-24T03:21:08.669Z,20.80
2023-02-24T03:23:47.725Z,19.85
2023-02-24T03:26:28.307Z,20.08
2023-02-24T03:28:55.670Z,22.50
2023-02-24T03:31:49.165Z,19.73
2023-02-24T03:34:19.875Z,20.42
2023-02-24T03:36:47.696Z,19.38
2023-02-24T03:39:15.999Z,20.38
2023-02-24T03:42:11.914Z,22.00
2023-02-24T03:44:39.088Z,20.58
2023-02-24T03:47:06.013Z,19.30
2023-02-24T03:49:32.971Z,20.80
2023-02-24T03:52:29.268Z,20.42
2023-02-24T03:55:09.375Z,20.92
2023-02-24T03:58:04.309Z,21.35
2023-02-24T04:00:46.689Z,20.38
2023-02-24T04:03:28.499Z,21.02
2023-02-24T04:06:38.707Z,21.77
2023-02-24T04:09:10.462Z,24.20
2023-02-24T04:12:17.204Z,23.27
2023-02-24T04:14:54.898Z,23.17
2023-02-24T04:17:35.392Z,23.10
2023-02-24T04:20:13.622Z,24.63
2023-02-24T04:22:49.056Z,24.60
2023-02-24T04:25:27.175Z,23.35
2023-02-24T04:27:58.563Z,26.83
2023-02-24T04:30:27.656Z,21.25
2023-02-24T04:32:54.397Z,23.17
2023-02-24T04:35:22.893Z,25.63
2023-02-24T04:37:50.906Z,26.52
2023-02-24T04:40:22.135Z,23.52
2023-02-24T04:42:50.491Z,22.40
2023-02-24T04:45:27.851Z,23.08
2023-02-24T04:48:00.991Z,22.88
2023-02-24T04:50:34.154Z,23.75
2023-02-24T04:53:10.010Z,26.23
2023-02-24T04:55:42.469Z,26.38
2023-02-24T04:58:13.645Z,25.60
2023-02-24T05:00:42.027Z,24.55
2023-02-24T05:03:11.686Z,25.95
2023-02-24T05:05:38.348Z,27.33
2023-02-24T05:08:06.949Z,26.58
2023-02-24T05:10:42.002Z,28.40
2023-02-24T05:13:11.169Z,24.48
2023-02-24T05:15:42.384Z,30.35
2023-02-24T05:18:14.092Z,26.48
2023-02-24T05:21:02.456Z,26.70
2023-02-24T05:23:39.399Z,25.35
2023-02-24T05:26:10.992Z,26.85
2023-02-24T05:28:40.838Z,27.15
2023-02-24T05:31:10.103Z,29.25
2023-02-24T05:33:43.794Z,25.38
2023-02-24T05:36:15.260Z,24.05
2023-02-24T05:38:41.919Z,24.65
2023-02-24T05:41:17.116Z,23.92
2023-02-24T05:43:53.057Z,27.13
2023-02-24T05:46:20.732Z,27.10
2023-02-24T05:48:51.219Z,26.50
2023-02-24T05:51:18.117Z,28.17
2023-02-24T05:53:44.771Z,29.83
2023-02-24T05:56:11.866Z,29.38
2023-02-24T05:58:39.363Z,30.73
2023-02-24T06:01:16.296Z,33.72
2023-02-24T06:03:46.794Z,31.45
2023-02-24T06:06:16.906Z,30.60
2023-02-24T06:08:50.087Z,33.10
2023-02-24T06:11:19.231Z,32.30
2023-02-24T06:13:50.113Z,31.55
2023-02-24T06:18:47.798Z,31.52
2023-02-24T06:21:14.375Z,32.47
2023-02-24T06:23:41.519Z,34.53
2023-02-24T06:26:13.203Z,33.28
2023-02-24T06:28:43.241Z,32.38
2023-02-24T06:31:11.073Z,33.03
2023-02-24T06:33:41.906Z,35.03
2023-02-24T06:36:08.673Z,32.83
2023-02-24T06:38:37.085Z,35.33
2023-02-24T06:41:10.802Z,31.08
2023-02-24T06:43:43.402Z,35.83
2023-02-24T06:46:12.532Z,33.45
2023-02-24T06:48:39.402Z,33.15
2023-02-24T06:51:06.911Z,35.28
2023-02-24T06:53:43.119Z,35.90
2023-02-24T06:56:20.539Z,33.45
2023-02-24T06:58:52.246Z,31.98
2023-02-24T07:01:26.789Z,32.60
2023-02-24T07:04:08.087Z,32.47
2023-02-24T07:06:38.371Z,36.17
2023-02-24T07:09:08.168Z,32.40
2023-02-24T07:11:35.647Z,35.05
2023-02-24T07:14:05.873Z,32.67
2023-02-24T07:16:34.666Z,35.13
2023-02-24T07:19:11.322Z,30.65
2023-02-24T07:21:43.330Z,31.85
2023-02-24T07:24:13.483Z,33.90
2023-02-24T07:26:41.784Z,33.72
2023-02-24T07:29:11.517Z,35.97
2023-02-24T07:31:39.058Z,35.60
2023-02-24T07:34:06.464Z,32.53
2023-02-24T07:36:38.984Z,34.13
2023-02-24T07:39:09.680Z,33.63
2023-02-24T07:41:37.167Z,34.38
2023-02-24T07:44:03.881Z,31.63
2023-02-24T07:46:31.513Z,34.03
2023-02-24T07:49:01.661Z,32.90
2023-02-24T07:51:29.501Z,32.05
2023-02-24T07:53:59.153Z,30.05
2023-02-24T07:56:27.812Z,32.78
2023-02-24T07:58:59.312Z,31.73
2023-02-24T08:01:38.972Z,30.00
2023-02-24T08:04:08.247Z,29.83
2023-02-24T08:06:45.458Z,31.35
2023-02-24T08:09:20.540Z,29.02
2023-02-24T08:11:55.505Z,29.92
2023-02-24T08:14:24.657Z,29.10
2023-02-24T08:16:53.371Z,30.25
2023-02-24T08:19:21.108Z,29.63
2023-02-24T08:21:52.945Z,26.98
2023-02-24T08:24:25.343Z,32.17
2023-02-24T08:27:04.407Z,28.95
2023-02-24T08:29:40.194Z,28.35
2023-02-24T08:32:09.482Z,31.38
2023-02-24T08:34:37.201Z,30.70
2023-02-24T08:37:04.628Z,30.05
2023-02-24T08:39:34.184Z,29.58
2023-02-24T08:42:00.794Z,27.73
2023-02-24T08:44:27.660Z,29.23
2023-02-24T08:46:55.436Z,28.15
2023-02-24T08:49:24.976Z,30.20
2023-02-24T08:51:53.086Z,29.80
2023-02-24T08:54:27.423Z,28.25
2023-02-24T08:57:08.077Z,27.70
2023-02-24T08:59:41.095Z,24.38
2023-02-24T09:02:27.277Z,27.10
2023-02-24T09:05:12.465Z,27.73
2023-02-24T09:07:41.956Z,26.73
2023-02-24T09:10:17.790Z,28.20
2023-02-24T09:12:44.846Z,26.38
2023-02-24T09:15:15.510Z,25.65
2023-02-24T09:17:45.669Z,24.02
2023-02-24T09:20:25.996Z,28.40
2023-02-24T09:23:07.802Z,25.25
2023-02-24T09:25:49.639Z,23.48
2023-02-24T09:28:20.983Z,24.50
2023-02-24T09:30:54.042Z,26.48
2023-02-24T09:33:39.103Z,26.23
2023-02-24T09:36:13.187Z,27.00
2023-02-24T09:39:00.857Z,24.38
2023-02-24T09:41:54.529Z,24.35
2023-02-24T09:44:33.618Z,24.50
2023-02-24T09:47:09.886Z,24.23
2023-02-24T09:49:59.102Z,23.70
2023-02-24T09:52:43.406Z,22.75
2023-02-24T09:55:26.972Z,24.98
2023-02-24T09:58:29.317Z,23.42
2023-02-24T10:01:21.453Z,24.88
2023-02-24T10:03:51.977Z,22.70
2023-02-24T10:06:26.815Z,22.05
2023-02-24T10:09:11.828Z,20.15
2023-02-24T10:12:04.006Z,22.88
2023-02-24T10:15:00.071Z,19.30
2023-02-24T10:17:40.277Z,20.85
2023-02-24T10:20:28.689Z,17.48
2023-02-24T10:25:42.898Z,17.35
2023-02-24T10:28:36.026Z,15.90
2023-02-24T10:31:25.709Z,14.75
2023-02-24T10:34:06.219Z,15.63
2023-02-24T10:36:36.181Z,15.05
2023-02-24T10:39:16.047Z,15.68
2023-02-24T10:41:57.573Z,14.35
2023-02-24T10:44:36.583Z,15.35
2023-02-24T10:47:14.295Z,15.68
2023-02-24T10:49:43.065Z,16.90
2023-02-24T10:52:29.409Z,15.85
2023-02-24T10:55:24.263Z,18.48
2023-02-24T10:58:05.980Z,18.23
2023-02-24T11:01:04.210Z,21.98
2023-02-24T11:03:41.777Z,17.52
2023-02-24T11:06:40.682Z,19.83
2023-02-24T11:09:19.730Z,19.52
2023-02-24T11:12:05.344Z,20.10
2023-02-24T11:14:58.101Z,20.80
2023-02-24T11:17:28.027Z,18.95
2023-02-24T11:19:58.494Z,19.40
2023-02-24T11:22:32.748Z,19.20
2023-02-24T11:25:05.940Z,18.05
2023-02-24T11:27:32.889Z,18.58
2023-02-24T11:30:22.804Z,19.67
2023-02-24T11:33:14.219Z,17.27
2023-02-24T11:35:46.926Z,19.90
2023-02-24T11:38:17.926Z,18.33
2023-02-24T11:40:48.658Z,18.63
2023-02-24T11:43:22.368Z,19.52
2023-02-24T11:46:09.672Z,17.67
2023-02-24T11:48:43.168Z,18.92
2023-02-24T11:51:23.661Z,19.63
2023-02-24T11:54:00.250Z,18.83
2023-02-24T11:59:22.398Z,19.88
2023-02-24T12:02:17.090Z,18.77
2023-02-24T12:04:52.227Z,18.73
2023-02-24T12:07:28.490Z,18.73
2023-02-24T12:10:14.154Z,16.23
2023-02-24T12:13:02.089Z,18.88
2023-02-24T12:15:32.073Z,18.65
2023-02-24T12:18:24.267Z,18.48
2023-02-24T12:20:56.035Z,20.13
2023-02-24T12:23:29.649Z,20.05
2023-02-24T12:26:17.070Z,20.42
2023-02-24T12:29:08.232Z,18.20
2023-02-24T12:31:54.394Z,19.83
2023-02-24T12:34:35.576Z,20.02
2023-02-24T12:37:22.476Z,19.05
2023-02-24T12:39:57.158Z,18.98
2023-02-24T12:42:45.307Z,15.68
2023-02-24T12:45:34.031Z,18.30
2023-02-24T12:48:19.333Z,17.35
2023-02-24T12:50:53.010Z,16.45
2023-02-24T12:53:23.445Z,16.33
2023-02-24T12:56:09.437Z,16.02
2023-02-24T12:58:38.443Z,16.50
2023-02-24T13:01:24.732Z,15.98
2023-02-24T13:04:34.649Z,16.55
2023-02-24T13:07:37.153Z,15.73
2023-02-24T13:10:30.480Z,15.90
2023-02-24T13:13:06.469Z,16.70
2023-02-24T13:15:34.594Z,14.77
2023-02-24T13:18:01.361Z,16.75
2023-02-24T13:20:34.551Z,14.60
2023-02-24T13:23:04.934Z,14.75
2023-02-24T13:25:34.459Z,14.50
2023-02-24T13:28:06.460Z,14.93
2023-02-24T13:30:41.427Z,16.05
2023-02-24T13:33:17.096Z,16.45
2023-02-24T13:35:43.844Z,14.98
2023-02-24T13:38:23.946Z,17.13
2023-02-24T13:40:50.959Z,15.70
2023-02-24T13:43:27.469Z,16.50
2023-02-24T13:48:47.931Z,15.30
2023-02-24T13:51:51.585Z,16.70
2023-02-24T13:54:39.461Z,15.30
2023-02-24T13:57:18.026Z,15.25
2023-02-24T13:59:57.722Z,16.00
2023-02-24T14:02:29.672Z,15.02
2023-02-24T14:04:58.523Z,14.45
2023-02-24T14:07:27.995Z,15.32
2023-02-24T14:09:58.130Z,16.63
2023-02-24T14:12:30.597Z,13.25
2023-02-24T14:14:57.864Z,14.43
2023-02-24T14:17:28.889Z,15.20
2023-02-24T14:20:08.017Z,14.98
2023-02-24T14:22:37.563Z,14.15
2023-02-24T14:25:05.475Z,14.02
2023-02-24T14:27:32.269Z,14.70
2023-02-24T14:29:58.870Z,13.60
2023-02-24T14:32:27.537Z,14.30
2023-02-24T14:34:54.480Z,14.52
2023-02-24T14:37:26.539Z,13.27
2023-02-24T14:40:00.804Z,12.93
2023-02-24T14:42:28.151Z,13.82
2023-02-24T14:44:57.560Z,13.02
2023-02-24T14:47:28.067Z,14.68
2023-02-24T14:52:48.387Z,15.40
2023-02-24T14:55:21.482Z,12.27
2023-02-24T14:57:56.659Z,14.52
2023-02-24T15:00:53.716Z,13.82
2023-02-24T15:03:34.224Z,13.30
2023-02-24T15:06:06.296Z,13.65
2023-02-24T15:08:42.711Z,12.23
2023-02-24T15:11:21.683Z,12.93
2023-02-24T15:13:50.193Z,12.85
2023-02-24T15:16:24.307Z,13.10
2023-02-24T15:19:01.006Z,12.85
2023-02-24T15:21:47.194Z,12.77
2023-02-24T15:24:19.077Z,12.57
2023-02-24T15:27:14.151Z,13.10
2023-02-24T15:29:42.964Z,13.00
2023-02-24T15:32:30.853Z,11.07
2023-02-24T15:35:08.669Z,12.05
2023-02-24T15:37:42.024Z,11.85
2023-02-24T15:40:21.724Z,12.38
2023-02-24T15:43:09.398Z,11.65
2023-02-24T15:45:38.762Z,11.55
2023-02-24T15:48:20.377Z,12.70
2023-02-24T15:50:47.293Z,12.10
2023-02-24T15:53:14.212Z,12.10
2023-02-24T15:55:41.962Z,13.02
2023-02-24T15:58:17.501Z,13.85
2023-02-24T16:00:45.456Z,14.10
2023-02-24T16:03:12.592Z,11.75
2023-02-24T16:09:36.696Z,12.50
2023-02-24T16:15:17.067Z,13.60
2023-02-24T16:17:43.943Z,12.70
2023-02-24T16:20:27.559Z,12.90
2023-02-24T16:22:56.413Z,13.25
2023-02-24T16:25:23.781Z,13.60
2023-02-24T16:27:57.682Z,14.13
2023-02-24T16:30:30.744Z,13.15
2023-02-24T16:32:58.890Z,15.50
2023-02-24T16:35:26.980Z,16.15
2023-02-24T16:37:54.110Z,13.10
2023-02-24T16:40:30.970Z,14.55
2023-02-24T16:42:57.931Z,14.85
2023-02-24T16:45:29.019Z,14.05
2023-02-24T16:48:01.897Z,14.93
2023-02-24T16:50:34.288Z,15.93
2023-02-24T16:53:01.598Z,15.95
